createdAt,value
2022-11-05T00:00:39.968Z,10.60
2022-11-05T00:03:26.484Z,10.60
2022-11-05T00:06:14.221Z,10.60
2022-11-05T00:09:00.547Z,10.50
2022-11-05T00:11:42.982Z,10.50
2022-11-05T00:14:28.595Z,10.60
2022-11-05T00:17:01.417Z,10.50
2022-11-05T00:19:29.880Z,10.50
2022-11-05T00:22:17.627Z,10.60
2022-11-05T00:25:04.722Z,10.60
2022-11-05T00:27:35.223Z,10.60
2022-11-05T00:30:04.000Z,10.70
2022-11-05T00:32:33.106Z,10.70
2022-11-05T00:35:02.302Z,10.70
2022-11-05T00:37:36.070Z,10.70
2022-11-05T00:40:05.577Z,10.70
2022-11-05T00:42:51.405Z,10.70
2022-11-05T00:45:20.951Z,10.70
2022-11-05T00:48:06.981Z,10.80
2022-11-05T00:50:36.965Z,10.80
2022-11-05T00:53:08.710Z,10.80
2022-11-05T00:55:40.071Z,10.70
2022-11-05T00:58:13.279Z,10.70
2022-11-05T01:00:44.396Z,10.80
2022-11-05T01:03:16.350Z,10.80
2022-11-05T01:05:47.151Z,10.70
2022-11-05T01:08:21.444Z,10.60
2022-11-05T01:10:54.819Z,10.60
2022-11-05T01:13:27.602Z,10.60
2022-11-05T01:15:56.739Z,10.60
2022-11-05T01:18:25.836Z,10.60
2022-11-05T01:20:54.105Z,10.60
2022-11-05T01:23:24.111Z,10.70
2022-11-05T01:25:52.508Z,10.70
2022-11-05T01:28:21.326Z,10.60
2022-11-05T01:31:00.083Z,10.70
2022-11-05T01:33:28.929Z,10.70
2022-11-05T01:35:57.186Z,10.70
2022-11-05T01:38:28.079Z,10.70
2022-11-05T01:40:56.819Z,10.70
2022-11-05T01:43:27.684Z,10.70
2022-11-05T01:46:00.042Z,10.70
2022-11-05T01:48:34.256Z,10.70
2022-11-05T01:51:07.580Z,10.70
2022-11-05T01:53:43.823Z,10.70
2022-11-05T01:56:18.152Z,10.60
2022-11-05T01:58:53.975Z,10.60
2022-11-05T02:01:25.117Z,10.50
2022-11-05T02:03:57.135Z,10.30
2022-11-05T02:06:28.530Z,10.10
2022-11-05T02:09:05.246Z,10.10
2022-11-05T02:11:34.316Z,10.10
2022-11-05T02:14:02.666Z,10.20
2022-11-05T02:16:40.271Z,10.20
2022-11-05T02:19:34.655Z,10.30
2022-11-05T02:22:34.777Z,10.30
2022-11-05T02:25:24.257Z,10.30
2022-11-05T02:28:29.208Z,10.30
2022-11-05T02:31:05.924Z,10.40
2022-11-05T02:33:41.376Z,10.40
2022-11-05T02:36:26.426Z,10.40
2022-11-05T02:39:10.394Z,10.40
2022-11-05T02:41:52.531Z,10.30
2022-11-05T02:44:34.617Z,10.20
2022-11-05T02:47:16.985Z,10.20
2022-11-05T02:49:55.599Z,10.10
2022-11-05T02:52:31.453Z,10.00
2022-11-05T02:55:08.155Z,10.00
2022-11-05T02:57:38.558Z,10.00
2022-11-05T03:00:34.015Z,10.00
2022-11-05T03:03:05.076Z,10.00
2022-11-05T03:05:43.096Z,10.10
2022-11-05T03:08:20.452Z,10.00
2022-11-05T03:10:57.583Z,10.10
2022-11-05T03:13:34.345Z,10.10
2022-11-05T03:16:07.520Z,10.00
2022-11-05T03:18:43.803Z,10.10
2022-11-05T03:21:21.576Z,10.10
2022-11-05T03:23:57.393Z,10.20
2022-11-05T03:26:30.895Z,10.20
2022-11-05T03:29:10.516Z,10.20
2022-11-05T03:31:44.228Z,10.20
2022-11-05T03:34:20.155Z,10.10
2022-11-05T03:36:57.702Z,10.20
2022-11-05T03:39:31.828Z,10.10
2022-11-05T03:42:03.051Z,10.10
2022-11-05T03:44:35.784Z,10.00
2022-11-05T03:47:07.522Z,9.80
2022-11-05T03:49:44.918Z,9.90
2022-11-05T03:52:18.804Z,9.80
2022-11-05T03:54:48.149Z,9.80
2022-11-05T03:57:22.334Z,9.80
2022-11-05T03:59:52.174Z,9.80
2022-11-05T04:02:21.952Z,9.80
2022-11-05T04:04:52.434Z,9.80
2022-11-05T04:07:38.219Z,9.70
2022-11-05T04:10:25.008Z,9.70
2022-11-05T04:13:10.929Z,9.80
2022-11-05T04:15:53.482Z,9.90
2022-11-05T04:18:24.024Z,9.90
2022-11-05T04:21:12.706Z,9.90
2022-11-05T04:23:59.887Z,10.10
2022-11-05T04:26:27.977Z,10.10
2022-11-05T04:29:13.630Z,10.10
2022-11-05T04:31:45.174Z,10.20
2022-11-05T04:34:13.656Z,10.20
2022-11-05T04:36:43.812Z,10.20
2022-11-05T04:39:12.301Z,10.20
2022-11-05T04:41:43.085Z,10.00
2022-11-05T04:44:14.099Z,9.90
2022-11-05T04:46:53.150Z,9.90
2022-11-05T04:49:22.560Z,9.90
2022-11-05T04:51:52.813Z,9.80
2022-11-05T04:54:21.413Z,9.90
2022-11-05T04:56:50.552Z,9.80
2022-11-05T04:59:19.169Z,9.80
2022-11-05T05:01:52.623Z,9.90
2022-11-05T05:04:21.331Z,9.90
2022-11-05T05:06:49.616Z,9.90
2022-11-05T05:09:22.069Z,10.00
2022-11-05T05:11:52.352Z,10.00
2022-11-05T05:14:20.624Z,10.10
2022-11-05T05:16:48.961Z,10.10
2022-11-05T05:19:18.809Z,10.10
2022-11-05T05:21:51.859Z,10.10
2022-11-05T05:24:25.082Z,10.10
2022-11-05T05:26:54.200Z,10.00
2022-11-05T05:29:22.423Z,10.00
2022-11-05T05:31:50.969Z,10.00
2022-11-05T05:34:21.129Z,10.10
2022-11-05T05:36:49.569Z,10.00
2022-11-05T05:39:18.434Z,10.10
2022-11-05T05:41:51.288Z,10.10
2022-11-05T05:44:20.044Z,10.10
2022-11-05T05:46:49.736Z,10.00
2022-11-05T05:49:22.642Z,10.00
2022-11-05T05:51:51.576Z,10.00
2022-11-05T05:54:21.695Z,10.00
2022-11-05T05:56:51.550Z,10.00
2022-11-05T05:59:20.668Z,10.10
2022-11-05T06:01:49.292Z,10.00
2022-11-05T06:04:20.644Z,10.00
2022-11-05T06:06:49.072Z,9.90
2022-11-05T06:09:17.820Z,9.90
2022-11-05T06:11:46.299Z,9.90
2022-11-05T06:14:16.006Z,9.90
2022-11-05T06:16:44.705Z,9.90
2022-11-05T06:19:13.619Z,9.90
2022-11-05T06:21:41.960Z,9.90
2022-11-05T06:24:13.044Z,9.90
2022-11-05T06:26:43.409Z,9.90
2022-11-05T06:29:14.165Z,9.90
2022-11-05T06:31:44.113Z,9.90
2022-11-05T06:34:12.212Z,9.90
2022-11-05T06:36:41.191Z,9.90
2022-11-05T06:39:12.082Z,10.00
2022-11-05T06:42:04.151Z,10.10
2022-11-05T06:44:29.305Z,10.10
2022-11-05T06:47:01.683Z,10.10
2022-11-05T06:49:30.434Z,10.00
2022-11-05T06:51:59.988Z,10.10
2022-11-05T06:54:28.158Z,10.10
2022-11-05T06:56:56.816Z,10.10
2022-11-05T06:59:25.257Z,10.10
2022-11-05T07:01:53.569Z,10.10
2022-11-05T07:04:23.202Z,10.10
2022-11-05T07:06:52.438Z,10.10
2022-11-05T07:09:21.055Z,10.10
2022-11-05T07:11:49.615Z,9.90
2022-11-05T07:14:18.082Z,9.90
2022-11-05T07:16:46.580Z,9.80
2022-11-05T07:19:15.168Z,9.80
2022-11-05T07:21:46.598Z,9.80
2022-11-05T07:24:15.661Z,9.60
2022-11-05T07:26:44.139Z,9.60
2022-11-05T07:29:12.273Z,9.40
2022-11-05T07:31:40.583Z,9.40
2022-11-05T07:34:09.429Z,9.30
2022-11-05T07:36:40.471Z,9.30
2022-11-05T07:39:10.390Z,9.20
2022-11-05T07:41:38.754Z,9.20
2022-11-05T07:44:07.308Z,9.20
2022-11-05T07:46:35.619Z,9.40
2022-11-05T07:49:04.573Z,9.50
2022-11-05T07:51:33.037Z,9.60
2022-11-05T07:54:02.393Z,9.70
2022-11-05T07:56:38.278Z,9.80
2022-11-05T07:59:06.957Z,9.70
2022-11-05T08:01:35.665Z,9.60
2022-11-05T08:04:07.556Z,9.60
2022-11-05T08:06:37.456Z,9.60
2022-11-05T08:09:07.495Z,9.60
2022-11-05T08:11:37.669Z,9.60
2022-11-05T08:14:06.528Z,9.70
2022-11-05T08:16:35.148Z,9.70
2022-11-05T08:19:04.840Z,9.70
2022-11-05T08:21:33.783Z,9.60
2022-11-05T08:24:02.108Z,9.60
2022-11-05T08:26:31.786Z,9.60
2022-11-05T08:29:01.933Z,9.50
2022-11-05T08:32:11.008Z,9.60
2022-11-05T08:34:39.410Z,9.60
2022-11-05T08:37:10.954Z,9.70
2022-11-05T08:39:40.326Z,9.70
2022-11-05T08:42:09.930Z,9.80
2022-11-05T08:44:38.415Z,9.70
2022-11-05T08:47:09.556Z,9.80
2022-11-05T08:49:39.484Z,9.80
2022-11-05T08:52:07.757Z,9.90
2022-11-05T08:54:39.427Z,9.70
2022-11-05T08:57:08.011Z,9.60
2022-11-05T08:59:36.282Z,9.80
2022-11-05T09:02:04.738Z,10.10
2022-11-05T09:04:33.332Z,10.50
2022-11-05T09:07:04.982Z,10.70
2022-11-05T09:09:33.273Z,10.80
2022-11-05T09:12:16.906Z,11.20
2022-11-05T09:14:45.405Z,11.50
2022-11-05T09:17:18.027Z,11.50
2022-11-05T09:19:54.358Z,11.40
2022-11-05T09:22:24.878Z,11.50
2022-11-05T09:24:53.403Z,11.60
2022-11-05T09:27:22.495Z,11.70
2022-11-05T09:29:52.679Z,11.50
2022-11-05T09:32:21.791Z,11.10
2022-11-05T09:34:52.601Z,11.20
2022-11-05T09:37:21.978Z,11.20
2022-11-05T09:39:51.917Z,11.00
2022-11-05T09:42:39.083Z,11.00
2022-11-05T09:45:11.535Z,11.00
2022-11-05T09:47:45.005Z,10.90
2022-11-05T09:50:18.473Z,11.00
2022-11-05T09:52:47.220Z,11.10
2022-11-05T09:55:37.173Z,11.30
2022-11-05T09:58:10.846Z,11.40
2022-11-05T10:00:39.638Z,11.40
2022-11-05T10:03:12.097Z,11.40
2022-11-05T10:05:42.352Z,11.50
2022-11-05T10:08:20.204Z,11.60
2022-11-05T10:10:55.065Z,11.70
2022-11-05T10:13:30.074Z,11.80
2022-11-05T10:16:02.692Z,11.90
2022-11-05T10:18:34.592Z,12.10
2022-11-05T10:21:06.217Z,12.10
2022-11-05T10:23:35.188Z,12.30
2022-11-05T10:26:09.182Z,12.40
2022-11-05T10:28:38.014Z,12.70
2022-11-05T10:31:09.577Z,12.70
2022-11-05T10:33:49.997Z,12.90
2022-11-05T10:36:24.385Z,13.00
2022-11-05T10:38:55.424Z,13.30
2022-11-05T10:41:44.263Z,13.40
2022-11-05T10:44:30.855Z,13.40
2022-11-05T10:47:13.429Z,13.50
2022-11-05T10:49:52.535Z,13.60
2022-11-05T10:52:28.025Z,13.60
2022-11-05T10:55:00.789Z,13.70
2022-11-05T10:57:37.318Z,13.70
2022-11-05T11:00:36.784Z,13.80
2022-11-05T11:03:07.492Z,13.80
2022-11-05T11:05:39.539Z,13.80
2022-11-05T11:08:25.851Z,13.80
2022-11-05T11:10:57.300Z,13.90
2022-11-05T11:13:30.908Z,13.50
2022-11-05T11:16:16.519Z,13.20
2022-11-05T11:18:45.233Z,13.10
2022-11-05T11:21:16.113Z,13.10
2022-11-05T11:23:54.260Z,13.00
2022-11-05T11:26:24.632Z,12.90
2022-11-05T11:28:59.462Z,12.80
2022-11-05T11:31:30.438Z,12.60
2022-11-05T11:34:02.268Z,12.60
2022-11-05T11:36:36.726Z,12.40
2022-11-05T11:39:07.078Z,12.40
2022-11-05T11:41:39.033Z,12.40
2022-11-05T11:44:27.066Z,12.40
2022-11-05T11:47:01.939Z,12.30
2022-11-05T11:49:44.651Z,12.40
2022-11-05T11:52:30.869Z,12.50
2022-11-05T11:55:22.782Z,12.40
2022-11-05T11:57:56.511Z,12.50
2022-11-05T12:00:27.741Z,12.60
2022-11-05T12:03:15.946Z,12.70
2022-11-05T12:05:49.445Z,12.70
2022-11-05T12:08:31.705Z,12.70
2022-11-05T12:11:06.808Z,12.70
2022-11-05T12:13:53.187Z,12.60
2022-11-05T12:16:52.150Z,12.60
2022-11-05T12:19:33.007Z,12.50
2022-11-05T12:22:11.546Z,12.40
2022-11-05T12:24:58.873Z,12.30
2022-11-05T12:28:03.972Z,12.30
2022-11-05T12:30:39.592Z,12.20
2022-11-05T12:33:23.150Z,12.20
2022-11-05T12:36:07.337Z,12.20
2022-11-05T12:38:52.220Z,12.20
2022-11-05T12:41:27.821Z,12.20
2022-11-05T12:44:14.089Z,12.30
2022-11-05T12:46:50.566Z,12.40
2022-11-05T12:49:44.652Z,12.50
2022-11-05T12:52:29.116Z,12.50
2022-11-05T12:55:04.621Z,12.50
2022-11-05T13:01:25.235Z,12.50
2022-11-05T13:10:52.673Z,12.50
2022-11-05T13:13:33.921Z,12.40
2022-11-05T13:16:36.376Z,12.30
2022-11-05T13:19:17.272Z,12.30
2022-11-05T13:25:19.281Z,12.20
2022-11-05T13:28:07.280Z,12.20
2022-11-05T13:30:49.416Z,12.30
2022-11-05T13:33:22.563Z,12.20
2022-11-05T13:36:21.697Z,12.20
2022-11-05T13:39:00.650Z,12.10
2022-11-05T13:41:46.078Z,12.00
2022-11-05T13:44:43.813Z,12.00
2022-11-05T13:47:29.494Z,12.10
2022-11-05T13:50:22.583Z,12.10
2022-11-05T13:56:47.597Z,12.00
2022-11-05T13:59:58.828Z,12.00
2022-11-05T14:03:07.535Z,12.00
2022-11-05T14:05:43.335Z,12.00
2022-11-05T14:08:15.284Z,11.90
2022-11-05T14:10:49.200Z,11.80
2022-11-05T14:13:24.344Z,11.80
2022-11-05T14:16:04.892Z,11.80
2022-11-05T14:18:41.401Z,11.80
2022-11-05T14:21:49.317Z,11.80
2022-11-05T14:24:43.410Z,11.80
2022-11-05T14:27:34.424Z,11.80
2022-11-05T14:30:19.083Z,11.80
2022-11-05T14:32:50.117Z,11.80
2022-11-05T14:35:38.372Z,11.80
2022-11-05T14:38:19.034Z,11.80
2022-11-05T14:40:48.527Z,11.80
2022-11-05T14:43:23.897Z,11.80
2022-11-05T14:45:58.576Z,11.80
2022-11-05T14:48:38.037Z,11.80
2022-11-05T14:51:29.105Z,11.80
2022-11-05T14:54:07.947Z,11.70
2022-11-05T14:56:51.818Z,11.60
2022-11-05T15:00:00.829Z,11.50
2022-11-05T15:02:35.944Z,11.40
2022-11-05T15:05:41.266Z,11.40
2022-11-05T15:08:36.030Z,11.30
2022-11-05T15:11:13.937Z,11.30
2022-11-05T15:13:50.549Z,11.30
2022-11-05T15:16:26.511Z,11.20
2022-11-05T15:18:56.663Z,11.20
2022-11-05T15:21:27.420Z,11.10
2022-11-05T15:23:59.140Z,10.90
2022-11-05T15:26:36.927Z,10.70
2022-11-05T15:29:17.762Z,10.70
2022-11-05T15:31:48.255Z,10.70
2022-11-05T15:34:22.632Z,10.60
2022-11-05T15:36:54.538Z,10.50
2022-11-05T15:39:34.671Z,10.40
2022-11-05T15:42:06.361Z,10.40
2022-11-05T15:44:42.313Z,10.30
2022-11-05T15:47:16.911Z,10.20
2022-11-05T15:49:51.357Z,10.20
2022-11-05T15:52:26.602Z,10.10
2022-11-05T15:55:15.574Z,10.10
2022-11-05T15:57:50.387Z,10.00
2022-11-05T16:00:23.168Z,10.00
2022-11-05T16:02:56.247Z,10.00
2022-11-05T16:05:27.371Z,9.90
2022-11-05T16:07:59.225Z,9.90
2022-11-05T16:10:31.686Z,9.90
2022-11-05T16:13:14.885Z,9.90
2022-11-05T16:15:57.660Z,9.80
2022-11-05T16:18:30.796Z,9.90
2022-11-05T16:21:27.190Z,9.80
2022-11-05T16:23:57.889Z,9.80
2022-11-05T16:27:01.360Z,9.90
2022-11-05T16:29:29.866Z,9.90
2022-11-05T16:32:00.008Z,9.80
2022-11-05T16:34:38.773Z,9.80
2022-11-05T16:37:11.819Z,9.80
2022-11-05T16:39:40.412Z,9.80
2022-11-05T16:42:38.301Z,9.80
2022-11-05T16:45:08.173Z,9.60
2022-11-05T16:47:37.515Z,9.50
2022-11-05T16:50:16.829Z,9.40
2022-11-05T16:52:46.204Z,9.30
2022-11-05T16:55:16.260Z,9.30
2022-11-05T16:57:49.171Z,9.30
2022-11-05T17:00:20.347Z,9.30
2022-11-05T17:02:49.086Z,9.30
2022-11-05T17:05:24.447Z,9.30
2022-11-05T17:07:53.112Z,9.30
2022-11-05T17:10:23.012Z,9.40
2022-11-05T17:12:55.732Z,9.30
2022-11-05T17:15:27.785Z,9.30
2022-11-05T17:17:57.169Z,9.40
2022-11-05T17:20:54.905Z,9.40
2022-11-05T17:23:26.678Z,9.30
2022-11-05T17:25:57.587Z,9.40
2022-11-05T17:28:29.282Z,9.50
2022-11-05T17:31:00.020Z,9.30
2022-11-05T17:33:28.644Z,9.20
2022-11-05T17:35:57.886Z,9.20
2022-11-05T17:38:35.883Z,9.20
2022-11-05T17:41:11.870Z,9.10
2022-11-05T17:43:47.449Z,8.90
2022-11-05T17:46:19.243Z,8.70
2022-11-05T17:48:50.591Z,8.70
2022-11-05T17:51:31.821Z,8.70
2022-11-05T17:54:11.992Z,8.70
2022-11-05T17:56:46.552Z,8.60
2022-11-05T17:59:16.674Z,8.60
2022-11-05T18:01:50.464Z,8.50
2022-11-05T18:04:26.575Z,8.40
2022-11-05T18:06:54.882Z,8.50
2022-11-05T18:09:23.469Z,8.50
2022-11-05T18:11:51.872Z,8.50
2022-11-05T18:14:24.131Z,8.60
2022-11-05T18:16:55.169Z,8.60
2022-11-05T18:19:23.682Z,8.40
2022-11-05T18:21:52.197Z,8.40
2022-11-05T18:24:21.132Z,8.40
2022-11-05T18:26:53.714Z,8.40
2022-11-05T18:30:30.953Z,8.40
2022-11-05T18:33:00.449Z,8.40
2022-11-05T18:35:28.712Z,8.40
2022-11-05T18:37:59.649Z,8.40
2022-11-05T18:44:26.561Z,8.40
2022-11-05T18:47:11.592Z,8.40
2022-11-05T18:49:46.949Z,8.40
2022-11-05T18:52:15.240Z,8.50
2022-11-05T18:54:44.777Z,8.40
2022-11-05T19:00:19.553Z,8.50
2022-11-05T19:02:48.151Z,8.40
2022-11-05T19:05:31.150Z,8.40
2022-11-05T19:08:20.807Z,8.40
2022-11-05T19:10:53.371Z,8.40
2022-11-05T19:13:22.863Z,8.40
2022-11-05T19:16:05.708Z,8.50
2022-11-05T19:22:40.137Z,8.50
2022-11-05T19:33:07.668Z,8.70
2022-11-05T19:35:41.039Z,8.60
2022-11-05T19:38:11.417Z,8.60
2022-11-05T19:40:39.815Z,8.50
2022-11-05T19:43:07.886Z,8.50
2022-11-05T19:45:44.745Z,8.50
2022-11-05T19:48:19.131Z,8.50
2022-11-05T19:50:48.744Z,8.60
2022-11-05T19:53:18.821Z,8.50
2022-11-05T19:55:47.571Z,8.50
2022-11-05T19:58:15.855Z,8.50
2022-11-05T20:00:46.452Z,8.50
2022-11-05T20:03:16.544Z,8.50
2022-11-05T20:05:46.258Z,8.50
2022-11-05T20:08:19.323Z,8.50
2022-11-05T20:10:54.687Z,8.60
2022-11-05T20:13:49.959Z,8.60
2022-11-05T20:16:29.294Z,8.50
2022-11-05T20:18:59.288Z,8.40
2022-11-05T20:21:53.947Z,8.40
2022-11-05T20:24:25.509Z,8.50
2022-11-05T20:26:55.066Z,8.40
2022-11-05T20:29:26.041Z,8.40
2022-11-05T20:32:44.167Z,8.40
2022-11-05T20:35:14.382Z,8.30
2022-11-05T20:37:42.737Z,8.30
2022-11-05T20:40:16.170Z,8.30
2022-11-05T20:42:45.041Z,8.20
2022-11-05T20:45:13.279Z,8.30
2022-11-05T20:47:42.382Z,8.30
2022-11-05T20:50:14.187Z,8.30
2022-11-05T20:52:46.374Z,8.30
2022-11-05T20:55:20.227Z,8.30
2022-11-05T20:57:48.829Z,8.20
2022-11-05T21:00:20.103Z,8.20
2022-11-05T21:02:48.478Z,8.20
2022-11-05T21:08:48.721Z,8.20
2022-11-05T21:11:17.975Z,8.30
2022-11-05T21:13:46.904Z,8.20
2022-11-05T21:16:44.424Z,8.30
2022-11-05T21:19:35.584Z,8.20
2022-11-05T21:29:38.884Z,8.40
2022-11-05T21:32:07.479Z,8.40
2022-11-05T21:34:36.764Z,8.30
2022-11-05T21:37:07.134Z,8.30
2022-11-05T21:39:41.100Z,8.20
2022-11-05T21:42:11.597Z,8.30
2022-11-05T21:44:41.990Z,8.30
2022-11-05T21:47:14.702Z,8.40
2022-11-05T21:49:43.223Z,8.40
2022-11-05T21:52:30.420Z,8.40
2022-11-05T21:55:16.195Z,8.40
2022-11-05T21:58:04.331Z,8.30
2022-11-05T22:00:36.574Z,8.30
2022-11-05T22:03:08.749Z,8.20
2022-11-05T22:05:40.328Z,8.20
2022-11-05T22:08:09.973Z,8.20
2022-11-05T22:10:52.478Z,8.20
2022-11-05T22:13:22.572Z,8.20
2022-11-05T22:15:58.541Z,8.30
2022-11-05T22:18:31.164Z,8.30
2022-11-05T22:21:24.546Z,8.20
2022-11-05T22:23:58.219Z,8.20
2022-11-05T22:26:27.112Z,8.20
2022-11-05T22:28:56.358Z,8.20
2022-11-05T22:31:34.780Z,8.20
2022-11-05T22:34:08.027Z,8.20
2022-11-05T22:36:37.411Z,8.30
2022-11-05T22:39:06.866Z,8.40
2022-11-05T22:41:39.488Z,8.40
2022-11-05T22:44:14.423Z,8.40
2022-11-05T22:46:46.993Z,8.40
2022-11-05T22:49:17.088Z,8.40
2022-11-05T22:51:46.712Z,8.40
2022-11-05T22:54:15.285Z,8.20
2022-11-05T22:56:48.954Z,8.30
2022-11-05T22:59:18.949Z,8.20
2022-11-05T23:01:51.697Z,8.20
2022-11-05T23:04:20.297Z,8.20
2022-11-05T23:07:05.777Z,8.30
2022-11-05T23:09:53.668Z,8.30
2022-11-05T23:12:26.272Z,8.20
2022-11-05T23:14:57.384Z,8.30
2022-11-05T23:17:47.434Z,8.20
2022-11-05T23:24:14.869Z,8.20
2022-11-05T23:26:54.157Z,8.20
2022-11-05T23:29:32.749Z,8.10
2022-11-05T23:32:20.654Z,8.20
2022-11-05T23:35:00.315Z,8.00
2022-11-05T23:38:24.175Z,8.10
2022-11-05T23:41:24.053Z,8.10
2022-11-05T23:44:09.436Z,8.20
2022-11-05T23:46:54.981Z,8.00
2022-11-05T23:49:24.492Z,7.90
2022-11-05T23:51:54.624Z,7.90
2022-11-05T23:54:23.406Z,8.00
2022-11-05T23:56:52.306Z,7.80
2022-11-05T23:59:22.809Z,7.90
